»·PEaware :: N261MG KBOI-KJAC

N261MG :: KBOI-KJAC

FLIGHT INFORMATION

Flight Status: Arrived
Operator: Privately registered:
United States
More flights under this callsign
Pilot: Marty O. (15602)
Aircraft: ECLIPSE 500
(EA50)
More flights by this aircraft type
Origin: KBOI Boise Air Terminal/Gowen
United States
Destination: KJAC Jackson Hole
United States
More flights between these airports :: More routes between these airports
Route: +BOI3 FETHR
File this flight plan on PilotEdge
Remarks:
Altitude:
(Current/Filed)
25,000ft
Speed:
(Current/Filed)
360kts
Departed: 23-Apr-20 08:58 PM
Arrived: 23-Apr-20 09:56 PM
Distance/Time
Traveled:
238nm/0:58
Distance/Time
To Go:
Arrived

Flight Plot

Page will automatically refresh every two minutes.


Map Options




Map Legend


Flown Route
Filed Route
Departure Airport
Arrival Airport
Navaid (VOR, NDB)
Fix

Horizontal Profiles

Position Reports

Time Latitude Longitude Heading Altitude Ground
Speed
23-Apr-20 20:41 43.562102 -116.205354 190 2866ft 0kts
23-Apr-20 20:42 43.562102 -116.205354 190 2866ft 0kts
23-Apr-20 20:43 43.562102 -116.205354 190 2866ft 0kts
23-Apr-20 20:44 43.562102 -116.205354 190 2866ft 0kts
23-Apr-20 20:45 43.562102 -116.205354 190 2866ft 0kts
23-Apr-20 20:46 43.562102 -116.205354 190 2866ft 0kts
23-Apr-20 20:46 43.562102 -116.205354 190 2866ft 0kts
23-Apr-20 20:48 43.562102 -116.205354 190 2866ft 0kts
23-Apr-20 20:49 43.562021 -116.206073 122 2865ft 8kts
23-Apr-20 20:49 43.561041 -116.206220 150 2863ft 6kts
23-Apr-20 20:50 43.559795 -116.202866 117 2867ft 6kts
23-Apr-20 20:52 43.559467 -116.202448 163 2867ft 0kts
23-Apr-20 20:52 43.559467 -116.202448 163 2867ft 0kts
23-Apr-20 20:53 43.559467 -116.202448 163 2867ft 0kts
23-Apr-20 20:54 43.559467 -116.202448 163 2867ft 0kts
23-Apr-20 20:55 43.559467 -116.202448 163 2867ft 0kts
23-Apr-20 20:56 43.558744 -116.203216 285 2865ft 13kts
23-Apr-20 20:57 43.569339 -116.243186 291 3867ft 161kts
23-Apr-20 20:58 43.583608 -116.306075 291 6919ft 174kts
23-Apr-20 20:59 43.598706 -116.374258 291 9862ft 181kts
23-Apr-20 21:00 43.614056 -116.446203 291 12615ft 187kts
23-Apr-20 21:01 43.646193 -116.461685 67 15069ft 212kts
23-Apr-20 21:02 43.655916 -116.369432 73 16002ft 281kts
23-Apr-20 21:03 43.667841 -116.251794 81 18139ft 281kts
23-Apr-20 21:04 43.668254 -116.147092 76 20802ft 253kts
23-Apr-20 21:05 43.669291 -116.044415 74 22754ft 248kts
23-Apr-20 21:06 43.670433 -115.944258 72 24382ft 251kts
23-Apr-20 21:07 43.671751 -115.837348 74 25206ft 291kts
23-Apr-20 21:08 43.673012 -115.702815 77 25204ft 354kts
23-Apr-20 21:09 43.674129 -115.547237 79 25204ft 392kts
23-Apr-20 21:10 43.675144 -115.380206 79 25189ft 415kts
23-Apr-20 21:11 43.675980 -115.205342 80 25125ft 428kts
23-Apr-20 21:12 43.676644 -115.029253 82 25116ft 429kts
23-Apr-20 21:13 43.676895 -114.853706 83 25115ft 428kts
23-Apr-20 21:14 43.676751 -114.678214 81 25149ft 428kts
23-Apr-20 21:15 43.676670 -114.503340 81 25154ft 430kts
23-Apr-20 21:16 43.676208 -114.328157 82 25152ft 431kts
23-Apr-20 21:17 43.675449 -114.151365 82 25151ft 431kts
23-Apr-20 21:18 43.674428 -113.976178 82 25152ft 432kts
23-Apr-20 21:19 43.673153 -113.802508 82 25152ft 431kts
23-Apr-20 21:20 43.671641 -113.631515 82 25155ft 432kts
23-Apr-20 21:21 43.669909 -113.463074 82 24827ft 430kts
23-Apr-20 21:22 43.668024 -113.304783 83 23604ft 397kts
23-Apr-20 21:23 43.666017 -113.149890 83 23076ft 395kts
23-Apr-20 21:24 43.663819 -112.997796 83 22554ft 391kts
23-Apr-20 21:25 43.661466 -112.847206 84 22038ft 387kts
23-Apr-20 21:26 43.658917 -112.699227 84 21532ft 383kts
23-Apr-20 21:27 43.656159 -112.549795 84 21021ft 379kts
23-Apr-20 21:28 43.653221 -112.400605 84 20511ft 375kts
23-Apr-20 21:29 43.650135 -112.253553 85 19986ft 371kts
23-Apr-20 21:30 43.646833 -112.105116 85 19445ft 367kts
23-Apr-20 21:31 43.641330 -111.961444 83 18918ft 363kts
23-Apr-20 21:32 43.654472 -111.825819 61 18387ft 342kts
23-Apr-20 21:33 43.689028 -111.701703 60 17872ft 336kts
23-Apr-20 21:34 43.729171 -111.604099 51 17343ft 268kts
23-Apr-20 21:35 43.767318 -111.512845 51 16843ft 276kts
23-Apr-20 21:36 43.808008 -111.417456 51 16338ft 303kts
23-Apr-20 21:37 43.853735 -111.313741 51 16006ft 308kts
23-Apr-20 21:38 43.899802 -111.209671 51 16004ft 308kts
23-Apr-20 21:39 43.945201 -111.107232 51 16004ft 308kts
23-Apr-20 21:40 43.990861 -111.006919 51 15678ft 273kts
23-Apr-20 21:41 44.034012 -110.917407 51 14633ft 270kts
23-Apr-20 21:42 44.073586 -110.828449 71 14011ft 273kts
23-Apr-20 21:43 44.088726 -110.724653 106 13873ft 281kts
23-Apr-20 21:44 44.060451 -110.630024 110 13052ft 248kts
23-Apr-20 21:45 44.017636 -110.564696 170 12249ft 247kts
23-Apr-20 21:46 43.954364 -110.549713 170 11984ft 198kts
23-Apr-20 21:47 43.911207 -110.564435 221 12494ft 161kts
23-Apr-20 21:48 43.868274 -110.607501 205 11991ft 195kts
23-Apr-20 21:49 43.814444 -110.636160 201 11990ft 195kts
23-Apr-20 21:50 43.764505 -110.660879 201 11988ft 177kts
23-Apr-20 21:51 43.718166 -110.680908 195 10245ft 179kts
23-Apr-20 21:52 43.674495 -110.705232 204 7591ft 144kts
23-Apr-20 21:53 43.644321 -110.719873 202 7117ft 107kts
23-Apr-20 21:54 43.616288 -110.733379 201 6491ft 96kts
23-Apr-20 21:55 43.603381 -110.738105 180 6421ft 12kts
23-Apr-20 21:56 43.601352 -110.738633 173 6416ft 10kts
23-Apr-20 21:57 43.599460 -110.738804 278 6414ft 0kts
23-Apr-20 21:58 43.599460 -110.738804 278 6414ft 0kts

Navigation Log

Ident Type
Flight plan parsing failed, navigation log unavailable